createdAt,value
2022-09-24T00:02:04.968Z,14.67
2022-09-24T00:07:06.487Z,14.69
2022-09-24T00:12:07.919Z,14.71
2022-09-24T00:17:09.199Z,14.70
2022-09-24T00:22:10.500Z,14.72
2022-09-24T00:27:11.969Z,14.73
2022-09-24T00:32:13.412Z,14.73
2022-09-24T00:37:14.705Z,14.73
2022-09-24T00:42:18.371Z,14.72
2022-09-24T00:47:37.413Z,14.69
2022-09-24T00:52:42.598Z,14.65
2022-09-24T00:57:44.894Z,14.59
2022-09-24T01:02:47.750Z,14.54
2022-09-24T01:07:49.129Z,14.48
2022-09-24T01:12:55.617Z,14.47
2022-09-24T01:18:09.559Z,14.44
2022-09-24T01:23:23.118Z,14.40
2022-09-24T01:28:41.302Z,14.39
2022-09-24T01:33:44.599Z,14.38
2022-09-24T01:38:47.542Z,14.35
2022-09-24T01:43:49.246Z,14.33
2022-09-24T01:48:50.745Z,14.31
2022-09-24T01:54:03.816Z,14.29
2022-09-24T01:59:17.588Z,14.28
2022-09-24T02:04:20.634Z,14.23
2022-09-24T02:09:29.057Z,14.18
2022-09-24T02:14:32.258Z,14.12
2022-09-24T02:19:35.181Z,14.05
2022-09-24T02:24:49.154Z,13.99
2022-09-24T02:29:50.642Z,13.95
2022-09-24T02:34:54.332Z,13.93
2022-09-24T02:39:55.903Z,13.90
2022-09-24T02:44:59.111Z,13.88
2022-09-24T02:50:00.791Z,13.85
2022-09-24T02:55:02.092Z,13.82
2022-09-24T03:00:04.014Z,13.82
2022-09-24T03:05:05.479Z,13.82
2022-09-24T03:10:07.105Z,13.79
2022-09-24T03:15:08.514Z,13.76
2022-09-24T03:20:09.845Z,13.72
2022-09-24T03:25:11.170Z,13.68
2022-09-24T03:30:31.323Z,13.67
2022-09-24T03:35:32.683Z,13.63
2022-09-24T03:40:34.053Z,13.59
2022-09-24T03:45:35.356Z,13.50
2022-09-24T03:50:37.055Z,13.42
2022-09-24T03:55:44.490Z,13.34
2022-09-24T04:00:45.826Z,13.29
2022-09-24T04:05:47.238Z,13.23
2022-09-24T04:10:49.522Z,13.20
2022-09-24T04:15:51.488Z,13.20
2022-09-24T04:20:57.333Z,13.18
2022-09-24T04:26:02.460Z,13.17
2022-09-24T04:31:03.972Z,13.15
2022-09-24T04:36:05.279Z,13.16
2022-09-24T04:41:07.754Z,13.15
2022-09-24T04:46:09.942Z,13.16
2022-09-24T04:51:11.299Z,13.16
2022-09-24T04:56:12.704Z,13.19
2022-09-24T05:01:14.052Z,13.20
2022-09-24T05:06:15.377Z,13.23
2022-09-24T05:11:16.732Z,13.27
2022-09-24T05:16:18.052Z,13.30
2022-09-24T05:21:19.396Z,13.32
2022-09-24T05:26:39.518Z,13.37
2022-09-24T05:31:40.842Z,13.44
2022-09-24T05:36:45.354Z,13.50
2022-09-24T05:41:46.661Z,13.58
2022-09-24T05:46:48.541Z,13.60
2022-09-24T05:51:50.519Z,13.61
2022-09-24T05:56:51.789Z,13.61
2022-09-24T06:01:53.833Z,13.66
2022-09-24T06:06:56.155Z,13.73
2022-09-24T06:11:57.469Z,13.80
2022-09-24T06:16:58.767Z,13.94
2022-09-24T06:22:00.138Z,14.06
2022-09-24T06:27:01.457Z,14.18
2022-09-24T06:32:02.949Z,14.30
2022-09-24T06:37:04.244Z,14.41
2022-09-24T06:42:06.440Z,14.50
2022-09-24T06:47:08.763Z,14.59
2022-09-24T06:52:11.295Z,14.66
2022-09-24T06:57:12.745Z,14.74
2022-09-24T07:02:14.133Z,14.81
2022-09-24T07:07:32.667Z,14.89
2022-09-24T07:12:34.736Z,15.06
2022-09-24T07:17:36.276Z,15.21
2022-09-24T07:22:41.489Z,15.35
2022-09-24T07:27:42.965Z,15.50
2022-09-24T07:32:44.270Z,15.67
2022-09-24T07:37:45.548Z,15.82
2022-09-24T07:42:47.903Z,16.00
2022-09-24T07:47:56.588Z,16.14
2022-09-24T07:52:57.882Z,16.31
2022-09-24T07:57:59.147Z,16.44
2022-09-24T08:03:01.814Z,16.56
2022-09-24T08:08:03.119Z,16.65
2022-09-24T08:13:04.401Z,16.73
2022-09-24T08:18:06.024Z,16.77
2022-09-24T08:23:09.896Z,16.77
2022-09-24T08:28:12.197Z,16.90
2022-09-24T08:33:13.642Z,17.11
2022-09-24T08:38:15.476Z,17.27
2022-09-24T08:43:22.889Z,17.49
2022-09-24T08:48:26.237Z,17.69
2022-09-24T08:53:39.668Z,17.87
2022-09-24T08:58:46.535Z,18.04
2022-09-24T09:04:10.884Z,18.22
2022-09-24T09:09:17.584Z,18.45
2022-09-24T09:14:22.341Z,18.60
2022-09-24T09:19:28.440Z,18.65
2022-09-24T09:24:39.663Z,18.82
2022-09-24T09:29:41.906Z,18.93
2022-09-24T09:34:47.955Z,19.07
2022-09-24T09:40:07.485Z,19.19
2022-09-24T09:45:27.668Z,19.36
2022-09-24T09:50:35.778Z,19.55
2022-09-24T09:55:37.618Z,19.69
2022-09-24T10:00:38.971Z,19.73
2022-09-24T10:05:41.241Z,19.77
2022-09-24T10:10:55.123Z,19.87
2022-09-24T10:16:08.606Z,19.91
2022-09-24T10:21:12.561Z,19.99
2022-09-24T10:26:14.219Z,19.96
2022-09-24T10:31:25.186Z,19.93
2022-09-24T10:36:28.286Z,19.97
2022-09-24T10:41:30.707Z,19.92
2022-09-24T10:46:38.132Z,19.97
2022-09-24T10:51:48.641Z,20.05
2022-09-24T10:56:53.559Z,20.05
2022-09-24T11:02:09.502Z,20.08
2022-09-24T11:07:19.870Z,20.08
2022-09-24T11:12:27.803Z,20.05
2022-09-24T11:17:34.194Z,20.07
2022-09-24T11:22:47.923Z,20.15
2022-09-24T11:28:08.194Z,20.18
2022-09-24T11:33:22.872Z,20.20
2022-09-24T11:38:39.640Z,20.25
2022-09-24T11:43:40.918Z,20.39
2022-09-24T11:48:55.383Z,20.50
2022-09-24T11:54:01.286Z,20.48
2022-09-24T11:59:07.685Z,20.42
2022-09-24T12:04:13.469Z,20.35
2022-09-24T12:09:17.830Z,20.36
2022-09-24T12:14:25.461Z,20.40
2022-09-24T12:19:30.667Z,20.52
2022-09-24T12:24:42.788Z,20.70
2022-09-24T12:30:09.215Z,20.72
2022-09-24T12:35:29.457Z,20.70
2022-09-24T12:40:46.324Z,20.74
2022-09-24T12:45:52.954Z,20.81
2022-09-24T12:50:59.115Z,20.83
2022-09-24T12:56:00.960Z,20.88
2022-09-24T13:01:25.695Z,20.99
2022-09-24T13:06:33.458Z,21.20
2022-09-24T13:11:37.388Z,21.27
2022-09-24T13:16:40.571Z,21.35
2022-09-24T13:21:42.342Z,21.82
2022-09-24T13:26:45.420Z,22.59
2022-09-24T13:31:49.221Z,22.95
2022-09-24T13:36:53.829Z,23.35
2022-09-24T13:42:07.282Z,23.80
2022-09-24T13:47:27.528Z,24.15
2022-09-24T13:52:32.361Z,23.94
2022-09-24T13:57:42.410Z,23.67
2022-09-24T14:02:51.346Z,23.41
2022-09-24T14:07:55.130Z,23.46
2022-09-24T14:13:07.924Z,23.31
2022-09-24T14:18:14.700Z,22.71
2022-09-24T14:23:18.932Z,22.16
2022-09-24T14:28:20.736Z,21.74
2022-09-24T14:33:25.812Z,21.45
2022-09-24T14:38:34.257Z,21.34
2022-09-24T14:43:41.889Z,21.14
2022-09-24T14:48:44.087Z,21.04
2022-09-24T14:53:45.378Z,20.91
2022-09-24T14:58:46.766Z,20.76
2022-09-24T15:03:52.776Z,20.65
2022-09-24T15:08:57.868Z,20.64
2022-09-24T15:14:11.501Z,20.62
2022-09-24T15:19:17.655Z,20.52
2022-09-24T15:24:22.704Z,20.48
2022-09-24T15:29:24.811Z,20.48
2022-09-24T15:34:26.216Z,20.48
2022-09-24T15:39:28.102Z,20.45
2022-09-24T15:44:33.896Z,20.38
2022-09-24T15:49:35.706Z,20.35
2022-09-24T15:54:37.014Z,20.28
2022-09-24T15:59:38.339Z,20.23
2022-09-24T16:04:39.635Z,20.20
2022-09-24T16:09:40.972Z,20.19
2022-09-24T16:14:42.433Z,20.12
2022-09-24T16:19:43.963Z,19.98
2022-09-24T16:24:45.257Z,19.86
2022-09-24T16:29:46.547Z,19.74
2022-09-24T16:34:48.346Z,19.68
2022-09-24T16:39:49.651Z,19.61
2022-09-24T16:44:50.916Z,19.53
2022-09-24T16:49:52.324Z,19.47
2022-09-24T16:54:53.634Z,19.41
2022-09-24T16:59:54.957Z,19.37
2022-09-24T17:04:59.433Z,19.31
2022-09-24T17:10:15.404Z,19.23
2022-09-24T17:15:19.207Z,19.12
2022-09-24T17:20:21.140Z,19.04
2022-09-24T17:25:22.415Z,18.95
2022-09-24T17:30:23.693Z,18.85
2022-09-24T17:35:24.966Z,18.75
2022-09-24T17:40:26.741Z,18.66
2022-09-24T17:45:29.321Z,18.58
2022-09-24T17:50:32.235Z,18.48
2022-09-24T17:55:33.515Z,18.42
2022-09-24T18:00:34.816Z,18.35
2022-09-24T18:05:36.326Z,18.29
2022-09-24T18:10:37.608Z,18.20
2022-09-24T18:15:39.043Z,18.11
2022-09-24T18:20:41.973Z,17.98
2022-09-24T18:25:43.490Z,17.88
2022-09-24T18:30:44.783Z,17.78
2022-09-24T18:35:46.083Z,17.69
2022-09-24T18:40:47.555Z,17.61
2022-09-24T18:45:49.090Z,17.52
2022-09-24T18:50:50.831Z,17.44
2022-09-24T18:55:52.504Z,17.39
2022-09-24T19:00:57.434Z,17.34
2022-09-24T19:06:03.106Z,17.28
2022-09-24T19:11:09.078Z,17.21
2022-09-24T19:16:12.282Z,17.16
2022-09-24T19:21:14.644Z,17.11
2022-09-24T19:26:17.916Z,17.05
2022-09-24T19:31:22.245Z,17.03
2022-09-24T19:36:23.721Z,16.96
2022-09-24T19:41:26.312Z,16.87
2022-09-24T19:46:28.395Z,16.80
2022-09-24T19:51:31.054Z,16.73
2022-09-24T19:56:32.933Z,16.70
2022-09-24T20:01:34.966Z,16.71
2022-09-24T20:06:37.054Z,16.71
2022-09-24T20:11:38.337Z,16.72
2022-09-24T20:16:42.627Z,16.73
2022-09-24T20:21:44.205Z,16.74
2022-09-24T20:27:04.276Z,16.74
2022-09-24T20:32:05.628Z,16.71
2022-09-24T20:37:07.103Z,16.72
2022-09-24T20:42:08.425Z,16.72
2022-09-24T20:47:10.404Z,16.73
2022-09-24T20:52:12.120Z,16.74
2022-09-24T20:57:14.100Z,16.74
2022-09-24T21:02:16.583Z,16.74
2022-09-24T21:07:18.029Z,16.72
2022-09-24T21:12:19.869Z,16.73
2022-09-24T21:17:21.418Z,16.74
2022-09-24T21:22:24.182Z,16.68
2022-09-24T21:27:25.727Z,16.68
2022-09-24T21:32:27.003Z,16.70
2022-09-24T21:37:28.656Z,16.73
2022-09-24T21:42:31.802Z,16.73
2022-09-24T21:47:33.098Z,16.68
2022-09-24T21:52:34.501Z,16.61
2022-09-24T21:57:35.771Z,16.53
2022-09-24T22:02:41.089Z,16.46
2022-09-24T22:07:45.383Z,16.41
2022-09-24T22:12:46.718Z,16.34
2022-09-24T22:17:48.131Z,16.31
2022-09-24T22:22:49.418Z,16.25
2022-09-24T22:27:50.688Z,16.21
2022-09-24T22:32:51.958Z,16.15
2022-09-24T22:37:53.691Z,16.11
2022-09-24T22:42:54.961Z,16.05
2022-09-24T22:47:56.633Z,15.98
2022-09-24T22:52:57.928Z,15.94
2022-09-24T22:57:59.197Z,15.91
2022-09-24T23:03:00.545Z,15.85
2022-09-24T23:08:01.944Z,15.79
2022-09-24T23:13:03.236Z,15.73
2022-09-24T23:18:04.509Z,15.70
2022-09-24T23:23:05.827Z,15.66
2022-09-24T23:28:07.099Z,15.63
2022-09-24T23:33:08.384Z,15.62
2022-09-24T23:38:09.714Z,15.60
2022-09-24T23:43:11.001Z,15.61
2022-09-24T23:48:12.375Z,15.57
2022-09-24T23:53:14.340Z,15.55
2022-09-24T23:58:16.682Z,15.56
